createdAt,value
2023-02-05T00:00:04.127Z,102220.69
2023-02-05T00:02:31.134Z,102219.66
2023-02-05T00:04:57.847Z,102215.88
2023-02-05T00:07:24.708Z,102217.13
2023-02-05T00:09:51.267Z,102219.44
2023-02-05T00:12:17.951Z,102220.06
2023-02-05T00:14:44.754Z,102220.06
2023-02-05T00:17:12.135Z,102216.72
2023-02-05T00:19:39.036Z,102220.06
2023-02-05T00:22:06.067Z,102215.88
2023-02-05T00:24:33.011Z,102215.88
2023-02-05T00:26:59.818Z,102212.50
2023-02-05T00:29:26.810Z,102210.38
2023-02-05T00:31:54.033Z,102208.69
2023-02-05T00:34:21.212Z,102203.88
2023-02-05T00:36:47.668Z,102203.25
2023-02-05T00:39:14.739Z,102206.22
2023-02-05T00:41:41.850Z,102205.59
2023-02-05T00:44:08.307Z,102212.06
2023-02-05T00:46:34.803Z,102203.91
2023-02-05T00:49:01.386Z,102211.22
2023-02-05T00:51:27.886Z,102218.94
2023-02-05T00:53:54.407Z,102218.94
2023-02-05T00:56:21.144Z,102220.41
2023-02-05T00:58:49.962Z,102219.13
2023-02-05T01:01:17.397Z,102218.69
2023-02-05T01:03:44.151Z,102213.19
2023-02-05T01:06:11.109Z,102223.00
2023-02-05T01:08:37.836Z,102216.06
2023-02-05T01:11:07.927Z,102219.19
2023-02-05T01:13:34.499Z,102230.69
2023-02-05T01:16:01.427Z,102234.03
2023-02-05T01:18:27.958Z,102231.91
2023-02-05T01:20:54.635Z,102231.69
2023-02-05T01:23:22.343Z,102226.22
2023-02-05T01:25:48.963Z,102220.78
2023-02-05T01:28:15.729Z,102213.22
2023-02-05T01:30:42.530Z,102220.88
2023-02-05T01:33:09.292Z,102217.09
2023-02-05T01:35:36.167Z,102212.28
2023-02-05T01:38:02.848Z,102210.00
2023-02-05T01:40:29.359Z,102207.47
2023-02-05T01:42:55.766Z,102201.59
2023-02-05T01:45:22.444Z,102196.97
2023-02-05T01:47:53.273Z,102188.41
2023-02-05T01:50:56.143Z,102173.94
2023-02-05T01:53:27.815Z,102169.50
2023-02-05T01:56:00.326Z,102176.19
2023-02-05T01:58:30.777Z,102176.38
2023-02-05T02:00:57.629Z,102166.69
2023-02-05T02:03:25.945Z,102173.09
2023-02-05T02:05:52.636Z,102169.81
2023-02-05T02:08:19.282Z,102162.94
2023-02-05T02:10:46.065Z,102161.69
2023-02-05T02:13:12.910Z,102157.63
2023-02-05T02:15:40.283Z,102155.31
2023-02-05T02:18:26.374Z,102148.53
2023-02-05T02:21:31.135Z,102141.38
2023-02-05T02:24:13.235Z,102138.81
2023-02-05T02:27:28.263Z,102132.09
2023-02-05T02:29:58.119Z,102129.03
2023-02-05T02:32:31.924Z,102124.78
2023-02-05T02:35:17.304Z,102123.13
2023-02-05T02:38:01.372Z,102128.31
2023-02-05T02:40:42.345Z,102123.72
2023-02-05T02:43:17.613Z,102118.66
2023-02-05T02:45:51.928Z,102118.66
2023-02-05T02:48:20.673Z,102112.50
2023-02-05T02:50:50.225Z,102113.34
2023-02-05T02:53:20.761Z,102113.94
2023-02-05T02:55:48.987Z,102104.31
2023-02-05T02:58:30.128Z,102100.97
2023-02-05T03:00:57.156Z,102095.13
2023-02-05T03:03:26.999Z,102101.41
2023-02-05T03:05:56.275Z,102088.78
2023-02-05T03:08:30.029Z,102088.50
2023-02-05T03:11:00.892Z,102078.81
2023-02-05T03:13:27.918Z,102079.47
2023-02-05T03:15:54.718Z,102095.13
2023-02-05T03:18:21.356Z,102085.06
2023-02-05T03:20:57.173Z,102089.69
2023-02-05T03:23:26.279Z,102091.78
2023-02-05T03:25:53.251Z,102080.66
2023-02-05T03:28:19.965Z,102079.19
2023-02-05T03:31:19.093Z,102074.94
2023-02-05T03:33:59.570Z,102086.63
2023-02-05T03:36:38.798Z,102083.28
2023-02-05T03:39:28.975Z,102088.72
2023-02-05T03:42:24.862Z,102080.59
2023-02-05T03:44:57.175Z,102079.91
2023-02-05T03:47:37.964Z,102076.94
2023-02-05T03:50:16.624Z,102088.41
2023-02-05T03:52:50.888Z,102085.88
2023-02-05T03:55:24.958Z,102091.03
2023-02-05T03:58:01.096Z,102095.13
2023-02-05T04:00:27.715Z,102097.59
2023-02-05T04:02:54.716Z,102087.47
2023-02-05T04:05:22.950Z,102085.34
2023-02-05T04:07:50.588Z,102081.53
2023-02-05T04:10:18.096Z,102091.81
2023-02-05T04:12:45.058Z,102089.53
2023-02-05T04:15:11.661Z,102094.53
2023-02-05T04:17:39.141Z,102092.44
2023-02-05T04:20:06.447Z,102091.81
2023-02-05T04:22:33.405Z,102086.81
2023-02-05T04:25:00.008Z,102087.66
2023-02-05T04:27:26.819Z,102092.91
2023-02-05T04:29:53.288Z,102088.69
2023-02-05T04:32:19.873Z,102097.88
2023-02-05T04:34:46.710Z,102103.25
2023-02-05T04:37:13.302Z,102085.72
2023-02-05T04:39:40.032Z,102086.13
2023-02-05T04:42:06.501Z,102099.06
2023-02-05T04:44:32.999Z,102096.97
2023-02-05T04:46:59.715Z,102095.03
2023-02-05T04:49:26.326Z,102095.66
2023-02-05T04:51:52.804Z,102103.34
2023-02-05T04:54:19.337Z,102098.97
2023-02-05T04:56:46.963Z,102106.53
2023-02-05T04:59:13.494Z,102107.94
2023-02-05T05:01:40.664Z,102104.13
2023-02-05T05:04:07.196Z,102100.75
2023-02-05T05:06:33.819Z,102104.13
2023-02-05T05:09:00.263Z,102109.94
2023-02-05T05:11:26.930Z,102111.81
2023-02-05T05:13:53.477Z,102116.84
2023-02-05T05:16:20.350Z,102110.84
2023-02-05T05:18:47.210Z,102112.16
2023-02-05T05:21:13.884Z,102117.41
2023-02-05T05:23:40.447Z,102119.59
2023-02-05T05:26:09.417Z,102121.25
2023-02-05T05:28:36.709Z,102128.34
2023-02-05T05:31:09.358Z,102127.38
2023-02-05T05:33:36.286Z,102136.22
2023-02-05T05:36:03.088Z,102134.84
2023-02-05T05:38:29.557Z,102127.78
2023-02-05T05:41:14.586Z,102131.22
2023-02-05T05:43:47.256Z,102125.63
2023-02-05T05:46:22.762Z,102130.28
2023-02-05T05:48:54.265Z,102126.72
2023-02-05T05:51:21.666Z,102122.56
2023-02-05T05:53:48.435Z,102122.78
2023-02-05T05:56:15.798Z,102120.56
2023-02-05T05:58:43.431Z,102117.25
2023-02-05T06:01:10.554Z,102121.00
2023-02-05T06:03:37.020Z,102112.06
2023-02-05T06:06:05.875Z,102118.28
2023-02-05T06:08:33.290Z,102117.53
2023-02-05T06:10:59.865Z,102119.81
2023-02-05T06:13:26.698Z,102116.84
2023-02-05T06:15:54.858Z,102120.34
2023-02-05T06:18:23.632Z,102122.84
2023-02-05T06:20:50.865Z,102127.25
2023-02-05T06:23:17.718Z,102129.31
2023-02-05T06:25:44.510Z,102135.16
2023-02-05T06:28:11.223Z,102135.16
2023-02-05T06:33:16.347Z,102129.69
2023-02-05T06:35:43.191Z,102140.69
2023-02-05T06:38:09.866Z,102141.94
2023-02-05T06:40:36.428Z,102135.94
2023-02-05T06:43:03.595Z,102136.84
2023-02-05T06:45:30.076Z,102142.88
2023-02-05T06:47:57.594Z,102148.31
2023-02-05T06:50:24.647Z,102148.25
2023-02-05T06:52:51.371Z,102154.28
2023-02-05T06:55:18.454Z,102153.31
2023-02-05T06:57:44.976Z,102139.09
2023-02-05T07:00:12.450Z,102139.84
2023-02-05T07:02:39.379Z,102136.91
2023-02-05T07:05:06.618Z,102135.38
2023-02-05T07:07:33.618Z,102135.19
2023-02-05T07:10:00.385Z,102137.84
2023-02-05T07:12:27.259Z,102122.09
2023-02-05T07:14:53.915Z,102127.09
2023-02-05T07:17:20.951Z,102116.66
2023-02-05T07:19:47.543Z,102122.00
2023-02-05T07:22:15.019Z,102115.28
2023-02-05T07:24:41.901Z,102128.69
2023-02-05T07:27:08.462Z,102119.97
2023-02-05T07:29:34.925Z,102131.25
2023-02-05T07:32:01.410Z,102124.97
2023-02-05T07:34:28.133Z,102130.81
2023-02-05T07:36:54.562Z,102122.56
2023-02-05T07:39:21.194Z,102126.59
2023-02-05T07:41:47.765Z,102127.75
2023-02-05T07:44:14.224Z,102132.81
2023-02-05T07:46:40.807Z,102120.34
2023-02-05T07:49:07.807Z,102119.78
2023-02-05T07:51:35.326Z,102117.50
2023-02-05T07:54:06.563Z,102123.88
2023-02-05T07:56:33.153Z,102129.44
2023-02-05T07:58:59.587Z,102132.91
2023-02-05T08:01:26.081Z,102147.56
2023-02-05T08:03:52.828Z,102150.94
2023-02-05T08:06:19.510Z,102142.84
2023-02-05T08:08:45.946Z,102146.38
2023-02-05T08:11:15.206Z,102152.78
2023-02-05T08:13:42.759Z,102145.22
2023-02-05T08:16:09.433Z,102125.34
2023-02-05T08:18:36.252Z,102121.44
2023-02-05T08:21:02.957Z,102116.81
2023-02-05T08:23:29.647Z,102105.81
2023-02-05T08:25:57.673Z,102102.53
2023-02-05T08:28:25.439Z,102105.25
2023-02-05T08:30:52.439Z,102096.31
2023-02-05T08:33:19.126Z,102088.16
2023-02-05T08:35:45.819Z,102082.84
2023-02-05T08:38:12.321Z,102088.47
2023-02-05T08:40:38.950Z,102082.47
2023-02-05T08:43:05.798Z,102081.19
2023-02-05T08:45:32.638Z,102081.06
2023-02-05T08:47:59.645Z,102065.66
2023-02-05T08:50:26.115Z,102059.44
2023-02-05T08:52:52.724Z,102065.78
2023-02-05T08:55:19.450Z,102059.44
2023-02-05T08:57:46.501Z,102056.75
2023-02-05T09:00:15.149Z,102058.03
2023-02-05T09:02:43.134Z,102051.41
2023-02-05T09:05:09.988Z,102050.38
2023-02-05T09:07:40.870Z,102052.41
2023-02-05T09:10:12.273Z,102043.31
2023-02-05T09:12:39.645Z,102043.97
2023-02-05T09:15:07.711Z,102049.72
2023-02-05T09:17:34.247Z,102053.03
2023-02-05T09:20:00.803Z,102048.38
2023-02-05T09:22:27.304Z,102054.91
2023-02-05T09:24:53.975Z,102049.44
2023-02-05T09:27:20.983Z,102046.38
2023-02-05T09:29:47.833Z,102045.81
2023-02-05T09:32:14.326Z,102037.00
2023-02-05T09:34:41.292Z,102038.78
2023-02-05T09:37:07.874Z,102037.75
2023-02-05T09:40:18.417Z,102027.75
2023-02-05T09:42:41.681Z,102020.72
2023-02-05T09:45:37.985Z,102019.69
2023-02-05T09:48:23.838Z,102013.53
2023-02-05T09:50:50.818Z,102015.03
2023-02-05T09:53:19.932Z,102010.19
2023-02-05T09:55:47.477Z,102011.31
2023-02-05T09:58:18.010Z,102017.66
2023-02-05T10:00:59.752Z,102021.44
2023-02-05T10:04:06.254Z,102008.50
2023-02-05T10:06:46.110Z,102012.44
2023-02-05T10:09:48.769Z,102010.84
2023-02-05T10:12:33.874Z,102005.84
2023-02-05T10:15:12.701Z,102003.81
2023-02-05T10:17:58.066Z,102013.75
2023-02-05T10:20:45.704Z,102018.09
2023-02-05T10:23:18.246Z,102021.22
2023-02-05T10:26:25.600Z,102009.44
2023-02-05T10:29:05.331Z,101987.44
2023-02-05T10:31:44.257Z,101994.63
2023-02-05T10:34:45.890Z,102001.59
2023-02-05T10:37:18.101Z,102004.41
2023-02-05T10:39:45.971Z,101996.53
2023-02-05T10:42:28.279Z,101982.69
2023-02-05T10:45:01.377Z,101992.88
2023-02-05T10:47:42.708Z,101984.25
2023-02-05T10:50:34.422Z,101985.25
2023-02-05T10:53:01.000Z,101985.94
2023-02-05T10:55:27.776Z,101982.94
2023-02-05T10:57:54.267Z,101976.34
2023-02-05T11:00:22.374Z,101974.84
2023-02-05T11:02:52.008Z,101975.41
2023-02-05T11:05:25.243Z,101964.19
2023-02-05T11:07:53.414Z,101967.03
2023-02-05T11:10:26.070Z,101973.75
2023-02-05T11:12:55.628Z,101965.50
2023-02-05T11:15:27.966Z,101956.53
2023-02-05T11:18:00.517Z,101956.53
2023-02-05T11:20:57.799Z,101959.22
2023-02-05T11:23:25.743Z,101959.72
2023-02-05T11:26:00.622Z,101952.59
2023-02-05T11:28:30.720Z,101948.31
2023-02-05T11:30:58.299Z,101956.34
2023-02-05T11:33:27.696Z,101953.97
2023-02-05T11:35:55.390Z,101958.72
2023-02-05T11:38:30.548Z,101945.63
2023-02-05T11:41:03.632Z,101947.63
2023-02-05T11:43:30.258Z,101938.22
2023-02-05T11:45:58.832Z,101940.28
2023-02-05T11:48:45.009Z,101934.50
2023-02-05T11:51:15.153Z,101934.44
2023-02-05T11:53:51.575Z,101930.72
2023-02-05T11:56:23.683Z,101929.25
2023-02-05T11:59:05.112Z,101921.25
2023-02-05T12:01:34.191Z,101913.91
2023-02-05T12:04:11.368Z,101910.16
2023-02-05T12:06:42.425Z,101914.94
2023-02-05T12:09:12.636Z,101918.44
2023-02-05T12:12:14.026Z,101915.69
2023-02-05T12:14:46.659Z,101927.94
2023-02-05T12:17:34.742Z,101917.34
2023-02-05T12:20:23.648Z,101928.09
2023-02-05T12:23:12.227Z,101922.69
2023-02-05T12:26:12.241Z,101920.09
2023-02-05T12:28:54.568Z,101911.41
2023-02-05T12:31:44.586Z,101908.88
2023-02-05T12:34:24.240Z,101910.59
2023-02-05T12:37:10.725Z,101914.44
2023-02-05T12:39:52.507Z,101914.41
2023-02-05T12:42:36.700Z,101914.25
2023-02-05T12:45:25.605Z,101914.19
2023-02-05T12:48:24.309Z,101908.63
2023-02-05T12:50:55.197Z,101909.91
2023-02-05T12:53:44.445Z,101907.88
2023-02-05T12:56:31.496Z,101896.72
2023-02-05T12:59:13.848Z,101907.75
2023-02-05T13:01:47.801Z,101906.84
2023-02-05T13:04:40.239Z,101897.69
2023-02-05T13:07:15.628Z,101899.16
2023-02-05T13:09:47.440Z,101894.09
2023-02-05T13:12:18.131Z,101890.91
2023-02-05T13:15:01.103Z,101898.34
2023-02-05T13:17:29.751Z,101890.94
2023-02-05T13:20:08.216Z,101896.25
2023-02-05T13:22:59.247Z,101889.25
2023-02-05T13:25:57.283Z,101876.75
2023-02-05T13:28:42.596Z,101883.09
2023-02-05T13:31:21.233Z,101876.56
2023-02-05T13:33:48.516Z,101879.06
2023-02-05T13:36:46.025Z,101880.59
2023-02-05T13:39:43.293Z,101882.09
2023-02-05T13:42:28.386Z,101887.06
2023-02-05T13:45:22.171Z,101892.19
2023-02-05T13:48:24.438Z,101900.38
2023-02-05T13:51:09.284Z,101901.47
2023-02-05T13:53:43.959Z,101913.06
2023-02-05T13:57:07.756Z,101907.66
2023-02-05T13:59:46.507Z,101910.44
2023-02-05T14:02:34.128Z,101911.06
2023-02-05T14:05:01.981Z,101909.53
2023-02-05T14:07:36.153Z,101913.50
2023-02-05T14:10:02.972Z,101914.31
2023-02-05T14:12:31.017Z,101916.88
2023-02-05T14:15:24.149Z,101919.41
2023-02-05T14:17:51.792Z,101916.50
2023-02-05T14:20:24.502Z,101917.19
2023-02-05T14:22:52.578Z,101899.59
2023-02-05T14:25:46.012Z,101885.94
2023-02-05T14:28:15.694Z,101889.19
2023-02-05T14:30:59.021Z,101885.22
2023-02-05T14:33:38.642Z,101884.75
2023-02-05T14:36:18.233Z,101888.91
2023-02-05T14:38:46.404Z,101896.09
2023-02-05T14:41:16.489Z,101893.19
2023-02-05T14:43:46.446Z,101899.25
2023-02-05T14:46:41.744Z,101893.94
2023-02-05T14:49:22.543Z,101899.84
2023-02-05T14:51:54.542Z,101905.25
2023-02-05T14:54:23.341Z,101913.72
2023-02-05T14:57:07.597Z,101916.22
2023-02-05T14:59:46.187Z,101918.63
2023-02-05T15:02:47.954Z,101922.63
2023-02-05T15:05:40.954Z,101915.63
2023-02-05T15:08:32.373Z,101920.69
2023-02-05T15:11:12.247Z,101914.88
2023-02-05T15:13:38.812Z,101918.13
2023-02-05T15:16:11.469Z,101924.22
2023-02-05T15:18:55.562Z,101932.00
2023-02-05T15:21:28.859Z,101921.31
2023-02-05T15:24:00.700Z,101913.63
2023-02-05T15:26:42.048Z,101920.50
2023-02-05T15:29:21.731Z,101934.56
2023-02-05T15:31:50.215Z,101924.09
2023-02-05T15:34:32.935Z,101929.72
2023-02-05T15:37:07.618Z,101921.00
2023-02-05T15:39:49.989Z,101908.81
2023-02-05T15:42:23.823Z,101913.50
2023-02-05T15:44:50.520Z,101911.25
2023-02-05T15:47:26.987Z,101906.50
2023-02-05T15:49:57.806Z,101904.72
2023-02-05T15:52:29.260Z,101914.16
2023-02-05T15:55:01.801Z,101922.75
2023-02-05T15:57:30.282Z,101914.88
2023-02-05T15:59:58.369Z,101917.97
2023-02-05T16:02:27.908Z,101917.72
2023-02-05T16:05:16.238Z,101907.47
2023-02-05T16:07:44.438Z,101913.94
2023-02-05T16:10:21.993Z,101919.16
2023-02-05T16:13:14.862Z,101926.50
2023-02-05T16:16:02.147Z,101927.69
2023-02-05T16:18:37.530Z,101945.66
2023-02-05T16:21:16.438Z,101943.72
2023-02-05T16:23:47.078Z,101946.22
2023-02-05T16:26:21.905Z,101944.06
2023-02-05T16:28:55.889Z,101947.53
2023-02-05T16:31:25.571Z,101953.09
2023-02-05T16:34:00.748Z,101973.25
2023-02-05T16:36:32.889Z,101983.09
2023-02-05T16:39:01.503Z,101991.47
2023-02-05T16:41:36.652Z,101989.88
2023-02-05T16:44:06.063Z,101999.66
2023-02-05T16:46:34.726Z,102000.19
2023-02-05T16:49:20.864Z,102002.78
2023-02-05T16:51:47.297Z,102001.09
2023-02-05T16:54:13.842Z,102002.47
2023-02-05T16:56:49.118Z,102010.81
2023-02-05T16:59:23.082Z,102013.97
2023-02-05T17:01:50.427Z,102010.00
2023-02-05T17:04:26.783Z,102001.63
2023-02-05T17:06:56.665Z,102004.19
2023-02-05T17:09:41.642Z,102007.84
2023-02-05T17:12:32.751Z,102005.38
2023-02-05T17:15:02.186Z,102010.25
2023-02-05T17:17:30.580Z,102015.97
2023-02-05T17:20:15.182Z,102010.97
2023-02-05T17:23:05.192Z,102024.41
2023-02-05T17:25:39.196Z,102026.06
2023-02-05T17:28:07.679Z,102032.66
2023-02-05T17:30:34.896Z,102029.31
2023-02-05T17:33:05.831Z,102034.78
2023-02-05T17:35:33.824Z,102024.91
2023-02-05T17:38:00.329Z,102017.81
2023-02-05T17:40:28.032Z,102019.59
2023-02-05T17:42:54.566Z,102018.97
2023-02-05T17:45:26.577Z,102013.97
2023-02-05T17:47:53.412Z,102020.06
2023-02-05T17:50:20.526Z,102021.72
2023-02-05T17:52:47.426Z,102012.94
2023-02-05T17:55:16.486Z,102007.31
2023-02-05T17:57:44.028Z,102011.09
2023-02-05T18:00:13.961Z,102012.56
2023-02-05T18:02:40.502Z,102018.03
2023-02-05T18:05:07.759Z,102006.75
2023-02-05T18:07:42.292Z,102012.44
2023-02-05T18:10:12.977Z,102015.81
2023-02-05T18:12:39.614Z,102025.69
2023-02-05T18:15:06.723Z,102036.81
2023-02-05T18:17:33.200Z,102041.69
2023-02-05T18:19:59.696Z,102032.91
2023-02-05T18:22:26.452Z,102047.19
2023-02-05T18:24:52.892Z,102047.19
2023-02-05T18:27:20.026Z,102046.78
2023-02-05T18:29:46.661Z,102032.94
2023-02-05T18:32:13.242Z,102031.25
2023-02-05T18:34:40.103Z,102038.81
2023-02-05T18:37:06.956Z,102040.28
2023-02-05T18:39:33.464Z,102030.41
2023-02-05T18:42:00.166Z,102031.66
2023-02-05T18:44:27.234Z,102045.28
2023-02-05T18:46:54.207Z,102032.50
2023-02-05T18:49:20.896Z,102045.06
2023-02-05T18:51:47.534Z,102035.84
2023-02-05T18:54:14.063Z,102032.72
2023-02-05T18:56:40.892Z,102041.28
2023-02-05T18:59:09.531Z,102046.75
2023-02-05T19:01:39.605Z,102054.31
2023-02-05T19:04:09.299Z,102060.44
2023-02-05T19:06:36.018Z,102060.22
2023-02-05T19:09:03.494Z,102056.00
2023-02-05T19:11:31.044Z,102044.25
2023-02-05T19:14:02.850Z,102053.44
2023-02-05T19:16:31.785Z,102058.72
2023-02-05T19:18:58.708Z,102062.50
2023-02-05T19:21:29.030Z,102066.94
2023-02-05T19:23:57.192Z,102063.41
2023-02-05T19:26:26.919Z,102083.34
2023-02-05T19:28:56.751Z,102084.19
2023-02-05T19:31:26.195Z,102090.69
2023-02-05T19:33:52.912Z,102081.44
2023-02-05T19:36:23.284Z,102073.25
2023-02-05T19:38:49.803Z,102085.41
2023-02-05T19:41:18.881Z,102081.44
2023-02-05T19:43:51.310Z,102088.16
2023-02-05T19:46:20.031Z,102084.38
2023-02-05T19:48:47.118Z,102093.59
2023-02-05T19:51:15.171Z,102087.09
2023-02-05T19:53:43.369Z,102087.72
2023-02-05T19:56:17.208Z,102100.50
2023-02-05T19:58:45.662Z,102096.09
2023-02-05T20:01:23.522Z,102088.34
2023-02-05T20:03:51.638Z,102091.72
2023-02-05T20:06:19.430Z,102094.84
2023-02-05T20:08:46.991Z,102094.22
2023-02-05T20:11:13.875Z,102091.69
2023-02-05T20:13:41.297Z,102096.06
2023-02-05T20:16:10.632Z,102093.97
2023-02-05T20:18:38.956Z,102092.50
2023-02-05T20:21:12.072Z,102098.97
2023-02-05T20:23:38.813Z,102087.28
2023-02-05T20:26:07.774Z,102088.72
2023-02-05T20:28:59.442Z,102095.41
2023-02-05T20:31:34.410Z,102094.56
2023-02-05T20:34:02.896Z,102095.38
2023-02-05T20:36:30.817Z,102088.66
2023-02-05T20:38:58.064Z,102088.44
2023-02-05T20:41:25.139Z,102089.91
2023-02-05T20:43:51.992Z,102090.75
2023-02-05T20:46:18.969Z,102101.59
2023-02-05T20:48:45.840Z,102099.69
2023-02-05T20:51:15.330Z,102092.56
2023-02-05T20:53:42.945Z,102087.72
2023-02-05T20:56:15.353Z,102084.56
2023-02-05T20:58:42.986Z,102083.94
2023-02-05T21:01:09.704Z,102086.44
2023-02-05T21:03:37.776Z,102094.38
2023-02-05T21:06:05.305Z,102102.13
2023-02-05T21:08:32.628Z,102089.53
2023-02-05T21:11:00.136Z,102101.81
2023-02-05T21:13:27.875Z,102108.47
2023-02-05T21:15:57.288Z,102119.81
2023-02-05T21:18:25.956Z,102122.28
2023-02-05T21:20:53.915Z,102130.00
2023-02-05T21:23:22.105Z,102132.72
2023-02-05T21:25:48.977Z,102133.16
2023-02-05T21:28:18.807Z,102127.88
2023-02-05T21:30:51.107Z,102139.44
2023-02-05T21:33:20.010Z,102139.25
2023-02-05T21:35:46.820Z,102148.63
2023-02-05T21:38:13.660Z,102153.63
2023-02-05T21:40:40.435Z,102157.38
2023-02-05T21:43:06.966Z,102172.03
2023-02-05T21:45:34.580Z,102175.13
2023-02-05T21:48:02.542Z,102174.25
2023-02-05T21:50:29.092Z,102173.41
2023-02-05T21:52:55.654Z,102174.50
2023-02-05T21:55:23.957Z,102185.38
2023-02-05T21:57:50.423Z,102185.78
2023-02-05T22:00:17.174Z,102171.13
2023-02-05T22:02:43.554Z,102177.16
2023-02-05T22:05:10.162Z,102173.16
2023-02-05T22:07:37.392Z,102174.41
2023-02-05T22:10:04.202Z,102177.72
2023-02-05T22:12:30.585Z,102184.38
2023-02-05T22:14:57.031Z,102188.78
2023-02-05T22:17:24.504Z,102201.63
2023-02-05T22:19:51.392Z,102218.41
2023-02-05T22:22:17.825Z,102219.00
2023-02-05T22:24:44.435Z,102214.53
2023-02-05T22:27:11.789Z,102225.41
2023-02-05T22:29:38.291Z,102215.31
2023-02-05T22:32:04.718Z,102221.94
2023-02-05T22:34:31.159Z,102217.94
2023-02-05T22:36:59.700Z,102224.47
2023-02-05T22:39:26.083Z,102212.31
2023-02-05T22:41:52.500Z,102209.25
2023-02-05T22:44:18.870Z,102208.78
2023-02-05T22:46:45.470Z,102206.28
2023-02-05T22:49:15.057Z,102208.72
2023-02-05T22:51:42.004Z,102194.56
2023-02-05T22:54:10.897Z,102193.91
2023-02-05T22:56:37.636Z,102211.63
2023-02-05T22:59:04.160Z,102215.78
2023-02-05T23:01:32.896Z,102213.63
2023-02-05T23:03:59.639Z,102222.38
2023-02-05T23:06:29.635Z,102227.72
2023-02-05T23:08:59.350Z,102226.31
2023-02-05T23:11:27.135Z,102232.97
2023-02-05T23:13:53.648Z,102224.44
2023-02-05T23:16:22.760Z,102220.13
2023-02-05T23:18:49.727Z,102223.78
2023-02-05T23:21:19.177Z,102223.41
2023-02-05T23:23:45.689Z,102230.06
2023-02-05T23:26:15.117Z,102236.34
2023-02-05T23:28:41.686Z,102234.59
2023-02-05T23:31:08.155Z,102232.41
2023-02-05T23:33:35.287Z,102218.84
2023-02-05T23:36:02.552Z,102214.91
2023-02-05T23:38:29.148Z,102217.16
2023-02-05T23:40:56.170Z,102215.66
2023-02-05T23:43:23.134Z,102212.56
2023-02-05T23:45:50.964Z,102204.91
2023-02-05T23:48:17.802Z,102211.44
2023-02-05T23:50:45.119Z,102204.63
2023-02-05T23:53:11.927Z,102207.91
2023-02-05T23:55:39.967Z,102206.41
2023-02-05T23:58:06.688Z,102206.53
